Time;durP1;ratioP1;P1;durP2;ratioP2;P2;SDS_P1;SDS_P2;PMS_P1;PMS_P2;Temp;Humidity;BMP_temperature;BMP_pressure;BME280_temperature;BME280_humidity;BME280_pressure;Samples;Min_cycle;Max_cycle;Signal;HPM_P1;HPM_P2
2022/05/25 00:00:46;;;;;;;6.28;3.80;;;;;;;12.15;87.79;95719.47;2049626;29;20055;-61
2022/05/25 00:01:48;;;;;;;7.43;4.13;;;;;;;12.16;87.22;95715.13;2041594;28;20062;-60
2022/05/25 00:02:49;;;;;;;7.15;4.05;;;;;;;12.19;87.27;95720.13;2057437;28;20051;-61
2022/05/25 00:03:50;;;;;;;6.03;4.13;;;;;;;12.16;87.76;95712.50;2049430;29;20106;-61
2022/05/25 00:04:52;;;;;;;6.32;3.85;;;;;;;12.09;88.09;95715.47;2049822;28;20051;-60
2022/05/25 00:05:53;;;;;;;8.85;4.82;;;;;;;12.07;87.79;95719.09;2049553;29;20054;-61
2022/05/25 00:06:55;;;;;;;5.63;3.95;;;;;;;12.11;87.52;95713.63;2049742;28;20760;-60
2022/05/25 00:07:56;;;;;;;7.35;4.53;;;;;;;12.08;88.35;95721.63;2041466;29;20415;-60
2022/05/25 00:08:58;;;;;;;5.55;4.18;;;;;;;12.05;88.25;95720.94;2042174;29;20445;-60
2022/05/25 00:09:59;;;;;;;7.53;4.18;;;;;;;12.04;88.47;95722.69;2042472;28;20450;-62
2022/05/25 00:11:00;;;;;;;7.30;4.20;;;;;;;12.08;87.85;95721.63;2049742;29;20055;-62
2022/05/25 00:12:01;;;;;;;5.10;4.15;;;;;;;12.08;88.54;95719.00;2049692;28;20047;-62
2022/05/25 00:13:02;;;;;;;5.40;4.22;;;;;;;12.07;88.23;95714.72;2046819;29;20534;-59
2022/05/25 00:14:04;;;;;;;7.15;4.72;;;;;;;12.06;88.34;95718.25;2033699;29;20406;-61
2022/05/25 00:15:06;;;;;;;6.13;4.32;;;;;;;12.06;88.18;95709.63;2037139;28;20055;-59
2022/05/25 00:16:07;;;;;;;7.03;4.57;;;;;;;12.06;88.07;95715.66;2049480;29;20050;-62
2022/05/25 00:17:08;;;;;;;7.18;4.57;;;;;;;12.09;88.79;95725.06;2042302;29;20509;-59
2022/05/25 00:18:09;;;;;;;6.10;4.03;;;;;;;12.08;88.01;95720.75;2034149;29;20044;-63
2022/05/25 00:20:32;;;;;;;7.35;4.78;;;;;;;12.06;88.41;95720.84;2052221;28;20058;-63
2022/05/25 00:21:33;;;;;;;6.13;4.22;;;;;;;12.05;88.26;95721.78;2049517;29;20051;-61
2022/05/25 00:22:40;;;;;;;6.40;4.03;;;;;;;12.05;88.83;95729.56;2034120;29;20059;-60
2022/05/25 00:23:41;;;;;;;6.07;4.50;;;;;;;12.02;88.56;95726.31;2043394;28;20056;-61
2022/05/25 00:24:42;;;;;;;6.40;4.72;;;;;;;12.00;88.67;95725.56;2033677;29;20048;-59
2022/05/25 00:25:43;;;;;;;7.55;4.63;;;;;;;11.99;88.49;95724.72;2042175;28;20054;-61
2022/05/25 00:26:44;;;;;;;6.20;4.45;;;;;;;11.99;88.54;95719.53;2049507;29;20051;-61
2022/05/25 00:27:47;;;;;;;4.97;4.32;;;;;;;11.99;88.02;95719.53;2041772;29;20545;-61
2022/05/25 00:28:48;;;;;;;6.65;4.65;;;;;;;12.00;88.60;95713.41;2041697;28;20059;-64
2022/05/25 00:29:49;;;;;;;5.50;4.30;;;;;;;12.04;88.87;95717.50;2056895;28;20047;-61
2022/05/25 00:30:50;;;;;;;6.82;4.55;;;;;;;12.04;88.19;95706.25;2051916;28;20047;-64
2022/05/25 00:31:51;;;;;;;7.70;4.75;;;;;;;12.06;88.70;95712.22;2041705;29;20052;-61
2022/05/25 00:32:54;;;;;;;6.95;4.45;;;;;;;12.10;88.00;95705.91;2038040;29;20067;-61
2022/05/25 00:33:55;;;;;;;7.32;4.60;;;;;;;12.12;87.43;95711.84;2042184;29;20052;-61
2022/05/25 00:34:56;;;;;;;6.07;4.68;;;;;;;12.11;88.01;95705.00;2048618;28;20066;-62
2022/05/25 00:35:58;;;;;;;6.70;4.57;;;;;;;12.06;87.70;95710.44;2049674;29;20047;-61
2022/05/25 00:36:59;;;;;;;7.78;4.70;;;;;;;12.06;87.96;95712.22;2041343;29;20054;-61
2022/05/25 00:38:00;;;;;;;5.55;4.13;;;;;;;12.04;87.90;95717.50;2036618;29;20499;-62
2022/05/25 00:39:02;;;;;;;7.28;5.20;;;;;;;12.01;87.91;95730.69;2041656;29;20441;-62
2022/05/25 00:40:04;;;;;;;6.38;4.40;;;;;;;12.00;88.21;95728.16;2042148;29;20062;-60
2022/05/25 00:41:05;;;;;;;8.00;4.25;;;;;;;11.99;88.01;95731.72;2036998;29;20058;-61
2022/05/25 00:42:07;;;;;;;7.00;4.45;;;;;;;11.98;88.31;95732.63;2041530;28;20433;-61
2022/05/25 00:43:09;;;;;;;7.32;4.18;;;;;;;12.00;87.85;95731.63;2040983;29;20059;-63
2022/05/25 00:44:10;;;;;;;6.03;4.70;;;;;;;12.04;88.19;95730.50;2034350;29;20048;-67
2022/05/25 00:45:12;;;;;;;6.55;4.82;;;;;;;12.07;88.09;95732.09;2034113;29;20043;-59
2022/05/25 00:46:15;;;;;;;6.20;4.63;;;;;;;11.96;88.47;95717.09;2026732;29;20056;-62
2022/05/25 00:47:20;;;;;;;5.68;4.90;;;;;;;12.05;88.74;95732.19;2034186;29;20538;-63
2022/05/25 00:48:25;;;;;;;5.93;4.68;;;;;;;12.04;88.98;95729.69;2042215;29;20044;-64
2022/05/25 00:49:29;;;;;;;6.70;4.63;;;;;;;12.06;88.82;95730.44;2039295;29;20063;-61
2022/05/25 00:51:12;;;;;;;6.75;4.10;;;;;;;12.03;88.87;95733.19;2042591;28;20054;-62
2022/05/25 00:52:57;;;;;;;4.90;4.38;;;;;;;12.16;88.14;95730.72;2035987;29;20419;-61
2022/05/25 00:54:01;;;;;;;5.22;4.18;;;;;;;12.16;87.77;95733.34;2041556;29;20070;-61
2022/05/25 00:55:04;;;;;;;8.00;4.75;;;;;;;12.01;87.90;95738.50;2049026;29;20055;-60
2022/05/25 00:56:05;;;;;;;7.78;4.68;;;;;;;11.97;88.86;95741.34;2033685;29;20039;-65
2022/05/25 00:57:20;;;;;;;7.15;4.65;;;;;;;11.97;88.66;95738.75;2026825;29;20104;-60
2022/05/25 00:58:21;;;;;;;7.75;5.18;;;;;;;11.97;89.00;95747.41;2036872;29;20490;-61
2022/05/25 00:59:28;;;;;;;6.38;5.10;;;;;;;11.94;88.73;95739.75;2033835;29;20044;-60
2022/05/25 01:00:29;;;;;;;6.20;5.20;;;;;;;11.97;88.90;95752.59;2036911;29;20048;-62
2022/05/25 01:01:31;;;;;;;9.25;5.50;;;;;;;11.97;88.33;95752.59;2034798;29;20051;-59
2022/05/25 01:02:34;;;;;;;6.78;4.85;;;;;;;11.95;88.95;95753.59;2041148;29;20421;-62
2022/05/25 01:03:35;;;;;;;8.38;5.18;;;;;;;11.94;88.43;95757.16;2056803;28;20543;-59
2022/05/25 01:04:36;;;;;;;6.60;5.15;;;;;;;11.93;88.95;95756.31;2032983;29;20521;-61
2022/05/25 01:05:41;;;;;;;7.20;5.20;;;;;;;11.94;88.22;95754.53;2041862;29;20073;-61
2022/05/25 01:07:05;;;;;;;6.38;5.30;;;;;;;11.89;88.02;95757.41;2049174;29;20429;-62
2022/05/25 01:08:26;;;;;;;7.60;4.97;;;;;;;11.91;88.39;95755.56;2044522;28;20058;-61
2022/05/25 01:09:40;;;;;;;8.18;4.63;;;;;;;11.85;88.31;95758.47;2046816;29;20521;-61
2022/05/25 01:10:57;;;;;;;7.53;5.40;;;;;;;11.87;88.02;95752.28;2048782;28;20038;-60
2022/05/25 01:12:07;;;;;;;5.05;4.40;;;;;;;11.88;87.41;95759.16;2057420;28;20059;-62
2022/05/25 01:13:19;;;;;;;6.30;4.30;;;;;;;11.86;86.78;95754.97;2050089;28;20039;-61
2022/05/25 01:14:49;;;;;;;5.88;4.30;;;;;;;11.89;87.29;95749.59;2034733;29;20422;-61
2022/05/25 01:16:03;;;;;;;4.75;3.90;;;;;;;11.88;85.93;95759.16;2037371;29;20039;-63
2022/05/25 01:17:11;;;;;;;5.18;4.00;;;;;;;11.92;86.25;95762.41;2046067;28;20531;-61
2022/05/25 01:18:25;;;;;;;5.60;4.20;;;;;;;11.86;86.22;95757.56;2049141;28;20039;-65
2022/05/25 01:19:52;;;;;;;5.38;4.05;;;;;;;11.85;86.85;95755.88;2044792;28;20058;-64
2022/05/25 01:21:01;;;;;;;4.60;3.58;;;;;;;11.89;86.44;95755.66;2036950;29;20059;-60
2022/05/25 01:22:33;;;;;;;5.63;3.97;;;;;;;11.85;86.73;95753.28;2040261;28;20044;-62
2022/05/25 01:23:57;;;;;;;7.28;4.10;;;;;;;11.83;86.61;95752.50;2052631;28;20665;-59
2022/05/25 01:25:29;;;;;;;4.43;3.70;;;;;;;11.80;86.50;95750.09;2051564;28;20061;-62
2022/05/25 01:27:05;;;;;;;5.28;4.03;;;;;;;11.83;86.40;95762.91;2037389;29;20036;-63
2022/05/25 01:28:14;;;;;;;5.88;4.05;;;;;;;11.78;86.71;95765.78;2048193;28;20050;-64
2022/05/25 01:29:33;;;;;;;6.60;4.30;;;;;;;11.81;86.20;95763.00;2041034;29;20044;-61
2022/05/25 01:30:37;;;;;;;5.55;4.10;;;;;;;11.88;86.79;95763.53;2041633;28;20054;-64
2022/05/25 01:31:45;;;;;;;6.63;3.90;;;;;;;11.81;86.37;95757.78;2041745;29;20044;-63
2022/05/25 01:33:10;;;;;;;7.13;4.57;;;;;;;11.75;87.15;95765.13;2034248;29;20533;-61
2022/05/25 01:34:17;;;;;;;6.05;4.35;;;;;;;11.72;87.08;95768.72;2042886;28;20042;-61
2022/05/25 01:35:33;;;;;;;8.82;3.90;;;;;;;11.68;88.23;95764.59;2057026;28;20037;-59
2022/05/25 01:36:45;;;;;;;5.70;4.10;;;;;;;11.73;86.78;95769.56;2049177;29;20065;-60
2022/05/25 01:37:53;;;;;;;7.20;4.60;;;;;;;11.70;86.82;95762.75;2049787;28;20070;-61
2022/05/25 01:38:57;;;;;;;7.50;4.57;;;;;;;11.69;87.93;95764.53;2042214;29;20539;-61
2022/05/25 01:40:02;;;;;;;6.03;4.18;;;;;;;11.64;87.53;95763.94;2042029;28;20050;-61
2022/05/25 01:41:03;;;;;;;6.43;4.13;;;;;;;11.64;88.15;95768.31;2057352;28;20054;-63
2022/05/25 01:42:10;;;;;;;4.78;4.20;;;;;;;11.52;88.65;95751.63;2048894;29;20046;-60
2022/05/25 01:43:23;;;;;;;6.15;4.68;;;;;;;11.60;88.18;95770.25;2049120;28;20035;-59
2022/05/25 01:44:26;;;;;;;6.25;3.95;;;;;;;11.70;87.61;95765.34;2048698;28;20042;-60
2022/05/25 01:45:29;;;;;;;4.57;3.55;;;;;;;11.72;87.54;95775.69;2049390;28;20097;-59
2022/05/25 01:46:32;;;;;;;6.00;4.30;;;;;;;11.69;86.98;95763.69;2041656;29;20052;-58
2022/05/25 01:47:33;;;;;;;5.85;4.50;;;;;;;11.65;87.39;95767.38;2033188;29;20051;-63
2022/05/25 01:48:35;;;;;;;4.88;3.95;;;;;;;11.68;87.31;95770.66;2025972;29;20380;-61
2022/05/25 01:49:50;;;;;;;5.38;4.25;;;;;;;11.61;86.77;95771.91;2033972;28;20043;-60
2022/05/25 01:50:55;;;;;;;7.20;4.50;;;;;;;11.58;86.77;95768.66;2042904;29;20035;-61
2022/05/25 01:51:58;;;;;;;6.38;3.70;;;;;;;11.55;86.43;95777.47;2033746;29;20463;-61
2022/05/25 01:52:59;;;;;;;4.72;4.20;;;;;;;11.59;86.78;95770.31;2034289;28;20059;-61
2022/05/25 01:54:02;;;;;;;6.43;4.53;;;;;;;11.57;87.21;95780.78;2040534;29;20047;-60
2022/05/25 01:55:06;;;;;;;5.90;4.70;;;;;;;11.53;87.24;95775.84;2033023;29;20048;-59
2022/05/25 01:56:08;;;;;;;6.55;4.55;;;;;;;11.50;86.65;95781.22;2041182;28;20044;-59
2022/05/25 01:57:10;;;;;;;6.10;4.20;;;;;;;11.50;87.20;95783.84;2064878;28;20042;-60
2022/05/25 01:58:13;;;;;;;5.57;4.80;;;;;;;11.54;86.99;95769.72;2048737;29;20536;-60
2022/05/25 01:59:16;;;;;;;8.52;4.45;;;;;;;11.54;86.64;95774.94;2041140;29;20040;-61
2022/05/25 02:00:27;;;;;;;4.85;4.20;;;;;;;11.52;87.35;95777.63;2034080;29;20055;-60
2022/05/25 02:01:29;;;;;;;7.82;4.47;;;;;;;11.52;86.98;95780.22;2043777;28;20544;-61
2022/05/25 02:05:11;;;;;;;7.78;4.47;;;;;;;11.58;87.28;95772.09;2056923;28;20046;-60
2022/05/25 02:06:34;;;;;;;6.57;4.43;;;;;;;11.53;86.82;95773.25;2049255;28;20240;-60
2022/05/25 02:07:44;;;;;;;5.22;4.55;;;;;;;11.56;87.71;95771.31;2052847;28;20046;-60
2022/05/25 02:09:05;;;;;;;6.00;4.30;;;;;;;11.59;86.61;95767.72;2048754;28;20516;-60
2022/05/25 02:10:31;;;;;;;5.38;4.25;;;;;;;11.48;87.14;95768.31;2041243;29;20036;-63
2022/05/25 02:11:41;;;;;;;7.55;4.28;;;;;;;11.43;87.51;95768.53;2047271;28;20050;-61
2022/05/25 02:12:57;;;;;;;10.23;4.88;;;;;;;11.45;87.59;95765.88;2055638;28;20038;-60
2022/05/25 02:14:03;;;;;;;5.30;4.57;;;;;;;11.53;87.23;95768.06;2053614;28;20042;-61
2022/05/25 02:15:19;;;;;;;6.35;4.32;;;;;;;11.56;87.33;95767.88;2056316;28;20050;-60
2022/05/25 02:16:36;;;;;;;10.30;4.60;;;;;;;11.54;88.22;95769.72;2056899;28;20049;-60
2022/05/25 02:17:44;;;;;;;7.97;4.78;;;;;;;11.57;87.33;95772.16;2040890;29;20048;-59
2022/05/25 02:18:56;;;;;;;6.90;4.55;;;;;;;11.62;87.58;95768.38;2027043;29;20044;-61
2022/05/25 02:20:07;;;;;;;8.43;4.95;;;;;;;11.50;87.56;95765.63;2029984;29;20527;-61
2022/05/25 02:21:16;;;;;;;4.85;4.32;;;;;;;11.54;88.26;95765.34;2042091;29;20371;-59
2022/05/25 02:22:20;;;;;;;8.80;4.80;;;;;;;11.45;87.20;95766.72;2042093;29;20488;-59
2022/05/25 02:23:37;;;;;;;6.07;4.63;;;;;;;11.37;88.04;95776.69;2041730;28;20035;-61
2022/05/25 02:24:42;;;;;;;6.82;5.03;;;;;;;11.35;88.77;95775.91;2056457;28;20057;-59
2022/05/25 02:25:45;;;;;;;6.10;5.03;;;;;;;11.38;88.55;95780.94;2034810;29;20055;-61
2022/05/25 02:26:52;;;;;;;6.38;5.05;;;;;;;11.37;88.34;95779.28;2041059;29;20047;-61
2022/05/25 02:27:56;;;;;;;7.70;5.13;;;;;;;11.37;88.13;95786.25;2042297;28;20052;-60
2022/05/25 02:29:08;;;;;;;8.90;5.18;;;;;;;11.37;88.75;95781.06;2040947;29;20449;-62
2022/05/25 02:30:13;;;;;;;9.68;5.40;;;;;;;11.35;88.54;95793.28;2034475;29;20051;-62
2022/05/25 02:31:17;;;;;;;6.80;5.35;;;;;;;11.34;89.31;95792.44;2031286;29;20040;-60
2022/05/25 02:32:22;;;;;;;8.13;5.93;;;;;;;11.39;89.01;95789.63;2034163;29;20054;-61
2022/05/25 02:33:27;;;;;;;9.45;5.60;;;;;;;11.36;89.40;95792.34;2049050;28;20043;-62
2022/05/25 02:34:31;;;;;;;7.05;5.68;;;;;;;11.38;89.18;95790.50;2056229;28;20054;-61
2022/05/25 02:35:33;;;;;;;10.50;6.47;;;;;;;11.33;89.38;95788.16;2048820;28;20050;-62
2022/05/25 02:36:35;;;;;;;8.23;5.93;;;;;;;11.34;88.92;95794.22;2041338;29;20052;-61
2022/05/25 02:37:36;;;;;;;8.45;5.75;;;;;;;11.32;89.63;95790.84;2048573;28;20066;-62
2022/05/25 02:38:38;;;;;;;7.90;5.82;;;;;;;11.33;89.18;95792.53;2040490;29;20044;-61
2022/05/25 02:39:39;;;;;;;7.38;6.25;;;;;;;11.33;89.96;95793.34;2025019;29;20423;-61
2022/05/25 02:40:41;;;;;;;8.20;6.18;;;;;;;11.32;89.46;95788.25;2026936;29;20052;-61
2022/05/25 02:41:48;;;;;;;7.20;6.50;;;;;;;11.30;89.95;95784.88;2040682;29;20529;-64
2022/05/25 02:42:49;;;;;;;8.80;6.45;;;;;;;11.30;90.17;95780.53;2034489;29;20055;-60
2022/05/25 02:43:50;;;;;;;6.75;6.05;;;;;;;11.36;90.04;95787.16;2032315;29;20048;-62
2022/05/25 02:44:51;;;;;;;8.90;6.80;;;;;;;11.41;89.98;95782.53;2040525;29;20058;-61
2022/05/25 02:45:52;;;;;;;9.18;6.63;;;;;;;11.42;90.05;95781.66;2056559;28;20053;-61
2022/05/25 02:46:54;;;;;;;8.82;6.63;;;;;;;11.38;89.44;95787.91;2040654;29;20048;-61
2022/05/25 02:47:55;;;;;;;8.75;6.20;;;;;;;11.44;90.30;95787.56;2048599;28;20049;-60
2022/05/25 02:48:56;;;;;;;12.85;6.45;;;;;;;11.42;90.47;95785.06;2040409;29;20047;-61
2022/05/25 02:49:57;;;;;;;8.82;6.53;;;;;;;11.39;90.77;95792.22;2033107;29;20442;-60
2022/05/25 02:50:59;;;;;;;9.18;7.45;;;;;;;11.33;90.61;95785.56;2040404;28;20517;-61
2022/05/25 02:52:00;;;;;;;10.13;7.50;;;;;;;11.35;90.28;95788.09;2056710;28;20050;-60
2022/05/25 02:53:01;;;;;;;8.57;6.95;;;;;;;11.39;90.44;95793.03;2056227;28;20042;-60
2022/05/25 02:54:03;;;;;;;9.73;7.18;;;;;;;11.29;90.06;95798.81;2048728;28;20540;-64
2022/05/25 02:55:04;;;;;;;8.98;6.82;;;;;;;11.32;90.67;95804.69;2035005;28;20051;-62
2022/05/25 02:56:06;;;;;;;9.00;6.90;;;;;;;11.30;90.46;95796.13;2056625;28;20417;-60
2022/05/25 02:57:07;;;;;;;11.27;6.78;;;;;;;11.38;90.11;95800.91;2048374;29;20039;-59
2022/05/25 02:58:08;;;;;;;9.43;7.20;;;;;;;11.32;90.01;95799.47;2040686;29;20051;-62
2022/05/25 02:59:09;;;;;;;7.65;6.85;;;;;;;11.34;89.74;95805.44;2047750;28;20428;-58
2022/05/25 03:00:11;;;;;;;8.02;6.30;;;;;;;11.31;89.75;95808.22;2064416;28;20512;-60
2022/05/25 03:01:13;;;;;;;8.85;7.32;;;;;;;11.34;90.19;95812.41;2048501;29;20144;-60
2022/05/25 03:02:14;;;;;;;11.20;7.47;;;;;;;11.31;89.70;95809.97;2048330;29;20043;-58
2022/05/25 03:03:15;;;;;;;9.93;7.32;;;;;;;11.31;90.06;95816.00;2032429;29;20043;-61
2022/05/25 03:04:16;;;;;;;11.20;7.32;;;;;;;11.34;89.67;95817.63;2040446;28;20090;-59
2022/05/25 03:05:17;;;;;;;9.00;7.10;;;;;;;11.32;90.27;95816.84;2072137;22;20062;-59
2022/05/25 03:06:19;;;;;;;7.70;6.43;;;;;;;11.37;90.26;95817.44;2058882;28;20042;-59
2022/05/25 03:07:20;;;;;;;9.60;7.13;;;;;;;11.35;90.87;95827.91;2031790;29;20051;-60
2022/05/25 03:08:21;;;;;;;10.73;7.50;;;;;;;11.34;90.70;95831.44;2040698;28;20054;-59
2022/05/25 03:09:22;;;;;;;8.05;6.82;;;;;;;11.35;89.98;95827.06;2056200;28;20053;-57
2022/05/25 03:10:23;;;;;;;9.85;8.02;;;;;;;11.40;90.47;95838.91;2069848;28;20045;-58
2022/05/25 03:11:24;;;;;;;13.25;8.00;;;;;;;11.35;90.79;95835.72;2055915;28;20508;-57
2022/05/25 03:12:25;;;;;;;8.93;7.28;;;;;;;11.38;90.71;95834.72;2048111;29;20058;-58
2022/05/25 03:13:27;;;;;;;11.73;7.43;;;;;;;11.33;90.07;95829.75;2055690;28;20149;-58
2022/05/25 03:14:28;;;;;;;9.35;6.95;;;;;;;11.33;90.46;95828.91;2047804;28;20046;-59
2022/05/25 03:15:30;;;;;;;12.25;8.18;;;;;;;11.30;90.44;95832.50;2055697;28;20043;-57
2022/05/25 03:16:32;;;;;;;11.77;7.75;;;;;;;11.34;90.24;95835.81;2055415;28;20047;-58
2022/05/25 03:17:33;;;;;;;10.57;8.20;;;;;;;11.36;90.51;95840.00;2056615;28;20051;-57
2022/05/25 03:18:34;;;;;;;10.82;7.38;;;;;;;11.30;90.59;95831.69;2063784;28;20555;-57
2022/05/25 03:19:36;;;;;;;12.48;8.48;;;;;;;11.34;91.44;95835.81;2047831;28;20421;-59
2022/05/25 03:20:38;;;;;;;11.20;8.82;;;;;;;11.27;91.10;95846.50;2040675;28;20050;-57
2022/05/25 03:21:39;;;;;;;11.48;8.77;;;;;;;11.26;91.66;95844.84;2048754;28;20539;-58
2022/05/25 03:22:44;;;;;;;13.20;9.00;;;;;;;11.24;91.74;95838.03;2049356;29;20521;-58
2022/05/25 03:23:46;;;;;;;13.07;9.63;;;;;;;11.13;91.91;95843.81;2049496;28;20039;-59
2022/05/25 03:24:47;;;;;;;13.13;9.40;;;;;;;11.09;91.86;95838.84;2063772;28;20057;-60
2022/05/25 03:25:48;;;;;;;12.95;9.43;;;;;;;11.10;91.37;95843.97;2047013;29;20062;-57
2022/05/25 03:26:49;;;;;;;12.35;9.60;;;;;;;11.12;91.83;95842.13;2047817;28;20043;-59
2022/05/25 03:27:50;;;;;;;15.40;9.80;;;;;;;11.20;91.97;95849.50;2039905;29;20070;-60
2022/05/25 03:28:52;;;;;;;14.25;10.40;;;;;;;11.15;92.42;95852.38;2039399;29;20058;-56
2022/05/25 03:29:53;;;;;;;14.13;10.20;;;;;;;11.13;91.64;95853.38;2055209;28;20050;-60
2022/05/25 03:30:54;;;;;;;15.20;10.18;;;;;;;11.11;91.90;95855.19;2055749;28;20043;-60
2022/05/25 03:31:55;;;;;;;14.68;10.65;;;;;;;11.11;91.67;95850.84;2048527;29;20054;-58
2022/05/25 03:32:56;;;;;;;14.88;11.05;;;;;;;11.10;92.19;95853.53;2040100;28;20501;-60
2022/05/25 03:33:58;;;;;;;13.50;9.95;;;;;;;11.14;92.02;95855.88;2055065;28;20053;-58
2022/05/25 03:35:00;;;;;;;17.25;10.88;;;;;;;11.15;92.21;95857.56;2032282;29;20115;-58
2022/05/25 03:36:01;;;;;;;15.13;11.45;;;;;;;11.19;91.98;95860.84;2035464;28;20402;-61
2022/05/25 03:37:02;;;;;;;16.67;12.13;;;;;;;11.16;92.25;95854.03;2055380;28;20045;-58
2022/05/25 03:38:04;;;;;;;17.20;10.95;;;;;;;11.07;92.90;95859.72;2055433;28;20054;-57
2022/05/25 03:39:05;;;;;;;15.48;11.40;;;;;;;11.10;92.56;95858.72;2039683;28;20414;-60
2022/05/25 03:40:09;;;;;;;16.42;11.25;;;;;;;11.14;92.92;95860.22;2040416;29;20048;-57
2022/05/25 03:41:10;;;;;;;14.13;11.43;;;;;;;11.10;93.10;95859.56;2040691;28;20054;-58
2022/05/25 03:42:12;;;;;;;16.27;11.40;;;;;;;11.16;92.66;95859.22;2047831;28;20437;-58
2022/05/25 03:43:15;;;;;;;16.33;12.05;;;;;;;11.14;92.25;95865.44;2055196;28;20417;-57
2022/05/25 03:44:16;;;;;;;16.58;11.27;;;;;;;11.19;92.77;95863.44;2038886;28;20047;-59
2022/05/25 03:45:17;;;;;;;16.80;11.85;;;;;;;11.20;93.04;95860.78;2039514;28;20045;-59
2022/05/25 03:46:18;;;;;;;17.73;13.13;;;;;;;11.16;93.34;95866.19;2047341;28;20051;-60
2022/05/25 03:47:20;;;;;;;18.88;12.55;;;;;;;11.12;92.56;95872.44;2055811;28;20425;-56
2022/05/25 03:48:21;;;;;;;19.50;12.85;;;;;;;11.09;93.12;95867.41;2047276;29;20043;-58
2022/05/25 03:49:22;;;;;;;18.13;12.32;;;;;;;11.11;93.28;95870.78;2055992;28;20051;-58
2022/05/25 03:50:23;;;;;;;16.75;12.15;;;;;;;11.18;92.91;95866.97;2055072;28;20054;-57
2022/05/25 03:51:24;;;;;;;16.67;12.75;;;;;;;11.19;93.31;95872.06;2063760;28;20042;-56
2022/05/25 03:52:25;;;;;;;17.92;13.60;;;;;;;11.15;93.09;95867.97;2063936;28;20057;-55
2022/05/25 03:53:27;;;;;;;19.33;14.32;;;;;;;11.11;93.07;95870.78;2055578;28;20481;-59
2022/05/25 03:54:28;;;;;;;21.65;15.10;;;;;;;11.10;92.60;95869.13;2063344;28;20382;-56
2022/05/25 03:55:29;;;;;;;18.88;14.20;;;;;;;11.08;93.00;95865.75;2063119;28;20057;-57
2022/05/25 03:56:30;;;;;;;17.63;12.90;;;;;;;11.02;92.76;95877.31;2056041;28;20058;-57
2022/05/25 03:57:32;;;;;;;20.77;14.60;;;;;;;11.07;92.96;95872.72;2056073;28;20053;-58
2022/05/25 03:58:33;;;;;;;17.92;14.52;;;;;;;11.03;92.67;95884.16;2054806;28;20064;-58
2022/05/25 03:59:34;;;;;;;19.58;14.57;;;;;;;11.02;93.75;95885.09;2065184;28;20046;-56
2022/05/25 04:00:36;;;;;;;20.05;14.27;;;;;;;11.03;93.29;95884.16;2048468;28;20425;-59
2022/05/25 04:01:37;;;;;;;19.92;14.50;;;;;;;11.03;93.51;95886.75;2031920;29;20048;-58
2022/05/25 04:02:39;;;;;;;26.05;14.45;;;;;;;11.02;92.95;95892.88;2039894;29;20521;-56
2022/05/25 04:03:40;;;;;;;23.27;15.00;;;;;;;11.03;93.18;95889.34;2055118;28;20129;-59
2022/05/25 04:04:41;;;;;;;18.75;14.82;;;;;;;11.08;93.13;95889.97;2055399;28;20050;-57
2022/05/25 04:05:42;;;;;;;20.48;14.95;;;;;;;11.06;93.50;95889.19;2047349;28;20058;-59
2022/05/25 04:06:44;;;;;;;22.05;15.15;;;;;;;10.99;93.31;95890.44;2047152;28;20465;-59
2022/05/25 04:07:47;;;;;;;21.63;16.00;;;;;;;10.99;94.09;95896.47;2056376;28;20050;-58
2022/05/25 04:08:48;;;;;;;20.88;14.40;;;;;;;10.99;93.74;95904.28;2061098;28;20050;-59
2022/05/25 04:09:49;;;;;;;19.80;14.35;;;;;;;10.95;93.65;95896.72;2047321;29;20050;-60
2022/05/25 04:10:50;;;;;;;22.00;14.27;;;;;;;10.94;93.43;95895.88;2039521;29;20047;-59
2022/05/25 04:11:51;;;;;;;19.65;14.88;;;;;;;10.96;93.95;95903.56;2031468;28;20506;-58
2022/05/25 04:12:52;;;;;;;24.52;16.23;;;;;;;10.95;94.31;95904.50;2056200;28;20512;-61
2022/05/25 04:13:53;;;;;;;26.38;16.85;;;;;;;10.96;94.19;95909.63;2056892;28;20065;-58
2022/05/25 04:14:55;;;;;;;20.65;15.57;;;;;;;10.94;94.70;95911.47;2062943;28;20046;-61
2022/05/25 04:15:56;;;;;;;18.13;14.15;;;;;;;10.88;93.89;95916.97;2047705;29;20051;-61
2022/05/25 04:16:57;;;;;;;22.67;14.18;;;;;;;10.89;94.74;95917.81;2039741;29;20059;-61
2022/05/25 04:17:58;;;;;;;20.92;14.13;;;;;;;10.88;94.35;95918.69;2048298;28;20051;-59
2022/05/25 04:18:59;;;;;;;21.30;14.43;;;;;;;10.88;94.32;95921.31;2047541;29;20066;-60
2022/05/25 04:20:02;;;;;;;15.40;12.50;;;;;;;10.79;94.57;95920.00;2052011;28;20536;-60
2022/05/25 04:21:03;;;;;;;20.27;13.60;;;;;;;10.79;94.04;95917.41;2047945;28;20058;-61
2022/05/25 04:22:04;;;;;;;19.98;14.50;;;;;;;10.81;94.63;95915.59;2047654;29;20052;-61
2022/05/25 04:23:09;;;;;;;18.45;13.48;;;;;;;10.80;94.87;95919.94;2050653;28;20501;-61
2022/05/25 04:24:12;;;;;;;23.63;13.52;;;;;;;10.78;94.12;95921.78;2055382;28;20428;-62
2022/05/25 04:25:15;;;;;;;17.05;13.80;;;;;;;10.77;94.61;95922.69;2055787;28;20365;-57
2022/05/25 04:26:16;;;;;;;20.88;13.05;;;;;;;10.77;94.41;95921.81;2063459;28;20051;-62
2022/05/25 04:27:18;;;;;;;22.80;14.65;;;;;;;10.79;94.60;95915.66;2047509;29;20055;-62
2022/05/25 04:28:20;;;;;;;24.48;15.55;;;;;;;10.77;94.23;95925.28;2056094;28;20424;-61
2022/05/25 04:29:21;;;;;;;21.13;13.43;;;;;;;10.74;94.57;95920.22;2055819;28;20046;-62
2022/05/25 04:30:25;;;;;;;16.60;13.05;;;;;;;10.76;94.04;95923.59;2047668;29;20043;-59
2022/05/25 04:31:27;;;;;;;19.63;12.75;;;;;;;10.82;94.47;95919.84;2047709;28;20062;-62
2022/05/25 04:32:28;;;;;;;19.00;14.02;;;;;;;10.78;94.65;95923.53;2056042;28;20054;-59
2022/05/25 04:33:30;;;;;;;19.73;13.75;;;;;;;10.78;95.20;95923.53;2054629;28;20436;-59
2022/05/25 04:34:32;;;;;;;18.00;12.48;;;;;;;10.67;94.59;95920.63;2063080;28;20050;-58
2022/05/25 04:35:33;;;;;;;16.45;12.52;;;;;;;10.70;94.48;95928.25;2063186;28;20050;-62
2022/05/25 04:36:38;;;;;;;16.13;11.73;;;;;;;10.71;94.88;95920.38;2055120;28;20070;-61
2022/05/25 04:38:59;;;;;;;14.05;10.70;;;;;;;10.70;94.61;95929.09;2063865;28;20120;-58
2022/05/25 04:40:00;;;;;;;15.38;10.25;;;;;;;10.69;94.32;95939.53;2055524;28;20059;-59
2022/05/25 04:41:01;;;;;;;14.50;9.85;;;;;;;10.66;94.40;95931.91;2055320;28;20055;-60
2022/05/25 04:42:03;;;;;;;15.60;11.27;;;;;;;10.65;93.88;95941.47;2064011;28;20050;-59
2022/05/25 04:43:06;;;;;;;13.40;10.18;;;;;;;10.60;93.69;95941.69;2055353;28;20051;-62
2022/05/25 04:44:08;;;;;;;11.63;8.88;;;;;;;10.49;93.77;95946.53;2039864;28;20048;-59
2022/05/25 04:45:10;;;;;;;11.80;9.10;;;;;;;10.63;93.98;95951.06;2039035;29;20059;-61
2022/05/25 04:46:12;;;;;;;15.15;8.65;;;;;;;10.56;94.32;95952.31;2049155;28;20050;-60
2022/05/25 04:47:13;;;;;;;12.63;7.32;;;;;;;10.50;93.98;95955.16;2064749;28;20608;-61
2022/05/25 04:48:15;;;;;;;9.75;6.85;;;;;;;10.48;93.40;95959.63;2048728;29;20046;-60
2022/05/25 04:49:16;;;;;;;10.20;7.03;;;;;;;10.44;93.19;95960.66;2048734;28;20043;-59
2022/05/25 04:50:19;;;;;;;11.20;7.25;;;;;;;10.44;93.74;95958.06;2048961;29;20051;-62
2022/05/25 04:51:20;;;;;;;12.30;7.05;;;;;;;10.49;93.26;95961.28;2049229;28;20058;-62
2022/05/25 04:52:21;;;;;;;9.77;6.85;;;;;;;10.35;92.85;95960.19;2064930;28;20050;-60
2022/05/25 04:53:23;;;;;;;12.05;7.68;;;;;;;10.38;93.19;95960.03;2040965;29;20517;-60
2022/05/25 04:54:24;;;;;;;8.20;6.80;;;;;;;10.35;93.38;95960.19;2040333;28;20052;-58
2022/05/25 04:58:16;;;;;;;6.50;4.50;;;;;;;10.28;92.63;95965.72;2058797;28;20582;-60
2022/05/25 04:59:18;;;;;;;5.63;3.92;;;;;;;10.19;92.19;95964.38;2052166;28;20046;-57
2022/05/25 05:00:19;;;;;;;7.88;4.35;;;;;;;10.15;91.64;95965.41;2049242;28;20629;-62
2022/05/25 05:01:20;;;;;;;5.88;4.70;;;;;;;10.13;92.41;95964.63;2056968;28;20542;-62
2022/05/25 05:02:21;;;;;;;6.95;4.50;;;;;;;10.14;92.48;95968.94;2057302;28;20038;-59
2022/05/25 05:03:23;;;;;;;8.45;4.93;;;;;;;10.19;92.23;95977.34;2055633;28;20047;-60
2022/05/25 05:04:26;;;;;;;7.05;5.30;;;;;;;10.16;92.12;95967.94;2056525;28;20529;-59
2022/05/25 05:05:27;;;;;;;7.82;5.28;;;;;;;10.22;92.28;95966.81;2063993;28;20046;-61
2022/05/25 05:06:28;;;;;;;6.18;4.72;;;;;;;10.18;92.16;95967.88;2064614;28;20069;-58
2022/05/25 05:07:31;;;;;;;7.00;4.80;;;;;;;10.20;91.92;95970.41;2041251;29;20047;-58
2022/05/25 05:08:33;;;;;;;12.23;5.18;;;;;;;10.17;92.43;95973.97;2049151;28;20047;-59
2022/05/25 05:09:34;;;;;;;8.38;4.97;;;;;;;10.22;92.58;95976.38;2056138;28;20140;-58